Time;durP1;ratioP1;P1;durP2;ratioP2;P2;SDS_P1;SDS_P2;PMS_P1;PMS_P2;Temp;Humidity;BMP_temperature;BMP_pressure;BME280_temperature;BME280_humidity;BME280_pressure;Samples;Min_cycle;Max_cycle;Signal;HPM_P1;HPM_P2
2022/04/23 00:01:43;;;;;;;14.35;6.20;;;10.60;99.90;;;;;;5051639;28;20534;-83
2022/04/23 00:04:10;;;;;;;12.07;5.72;;;10.50;99.90;;;;;;5044757;28;20657;-84
2022/04/23 00:06:37;;;;;;;13.63;6.38;;;10.50;99.90;;;;;;5058445;28;20028;-82
2022/04/23 00:09:03;;;;;;;12.73;5.85;;;10.40;99.90;;;;;;5074569;28;20086;-83
2022/04/23 00:11:29;;;;;;;13.13;6.80;;;10.40;99.90;;;;;;5049380;28;20066;-83
2022/04/23 00:13:55;;;;;;;12.15;6.22;;;10.40;99.90;;;;;;5049282;28;20489;-83
2022/04/23 00:16:22;;;;;;;13.15;6.15;;;10.40;99.90;;;;;;5062466;28;20097;-83
2022/04/23 00:18:48;;;;;;;12.57;6.65;;;10.40;99.90;;;;;;5046855;28;20040;-83
2022/04/23 00:21:14;;;;;;;17.05;6.97;;;10.40;99.90;;;;;;5058747;28;20400;-83
2022/04/23 00:23:40;;;;;;;12.13;6.57;;;10.40;99.90;;;;;;5043356;28;20032;-83
2022/04/23 00:26:06;;;;;;;13.77;6.60;;;10.40;99.90;;;;;;5074310;28;20045;-83
2022/04/23 00:28:32;;;;;;;13.52;7.03;;;10.40;99.90;;;;;;5043833;28;20107;-83
2022/04/23 00:30:58;;;;;;;14.85;6.97;;;10.50;99.90;;;;;;5048035;28;20115;-83
2022/04/23 00:33:23;;;;;;;15.75;7.43;;;10.50;99.90;;;;;;5048361;28;20043;-83
2022/04/23 00:35:50;;;;;;;14.98;7.53;;;10.40;99.90;;;;;;5063498;28;20131;-83
2022/04/23 00:38:17;;;;;;;14.85;7.57;;;10.40;99.90;;;;;;5033279;28;20450;-83
2022/04/23 00:40:44;;;;;;;15.68;7.63;;;10.40;99.90;;;;;;5058223;28;20413;-83
2022/04/23 00:43:30;;;;;;;13.77;7.55;;;10.70;99.90;;;;;;5041686;28;20140;-83
2022/04/23 00:45:56;;;;;;;14.00;7.43;;;10.40;99.90;;;;;;5066464;28;20035;-83
2022/04/23 00:48:24;;;;;;;15.13;7.45;;;10.50;99.90;;;;;;5043882;28;20039;-84
2022/04/23 00:50:56;;;;;;;20.95;8.13;;;10.30;99.90;;;;;;5046597;28;20127;-83
2022/04/23 00:53:23;;;;;;;14.93;7.38;;;10.30;99.90;;;;;;5057455;28;20032;-83
2022/04/23 00:55:49;;;;;;;14.82;7.63;;;10.30;99.90;;;;;;5032414;28;20051;-83
2022/04/23 00:58:16;;;;;;;17.02;7.55;;;10.30;99.90;;;;;;5058395;28;20029;-83
2022/04/23 01:00:43;;;;;;;15.27;7.80;;;10.20;99.90;;;;;;5048292;28;20125;-83
2022/04/23 01:03:12;;;;;;;14.45;7.80;;;10.20;99.90;;;;;;5059453;28;20119;-83
2022/04/23 01:05:40;;;;;;;14.38;7.00;;;10.70;99.90;;;;;;5073409;28;20040;-83
2022/04/23 01:08:06;;;;;;;16.05;8.07;;;10.20;99.90;;;;;;5055558;28;20103;-83
2022/04/23 01:10:33;;;;;;;15.75;7.82;;;10.20;99.90;;;;;;5055530;28;20052;-83
2022/04/23 01:12:59;;;;;;;13.88;7.82;;;10.10;99.90;;;;;;5047737;28;20044;-84
2022/04/23 01:15:25;;;;;;;15.38;7.95;;;10.20;99.90;;;;;;5061662;28;20039;-82
2022/04/23 01:17:50;;;;;;;14.93;7.97;;;10.10;99.90;;;;;;5041747;28;20043;-83
2022/04/23 01:20:16;;;;;;;15.68;7.93;;;10.10;99.90;;;;;;5054997;28;20128;-83
2022/04/23 01:22:44;;;;;;;15.32;8.50;;;10.10;99.90;;;;;;5077363;28;20102;-83
2022/04/23 01:25:12;;;;;;;13.93;7.97;;;10.00;99.90;;;;;;5066989;28;20496;-83
2022/04/23 01:27:39;;;;;;;16.77;8.02;;;10.00;99.90;;;;;;5060349;28;20071;-83
2022/04/23 01:30:07;;;;;;;14.18;8.18;;;10.00;99.90;;;;;;5042507;28;20039;-84
2022/04/23 01:32:33;;;;;;;16.40;8.65;;;10.00;99.90;;;;;;5066266;28;20078;-83
2022/04/23 01:34:59;;;;;;;14.85;8.15;;;10.00;99.90;;;;;;5064774;28;20036;-83
2022/04/23 01:37:25;;;;;;;14.57;8.30;;;9.90;99.90;;;;;;5061130;28;20091;-83
2022/04/23 01:39:51;;;;;;;14.38;8.60;;;9.90;99.90;;;;;;5039994;28;20082;-83
2022/04/23 01:42:19;;;;;;;15.43;8.45;;;10.00;99.90;;;;;;5051394;28;20381;-83
2022/04/23 01:44:50;;;;;;;17.23;9.00;;;9.90;99.90;;;;;;5051628;28;20028;-83
2022/04/23 01:47:16;;;;;;;15.48;8.57;;;9.90;99.90;;;;;;5055032;28;20071;-83
2022/04/23 01:49:44;;;;;;;18.25;8.93;;;11.00;99.90;;;;;;5060218;28;20032;-83
2022/04/23 01:52:10;;;;;;;15.68;8.57;;;9.90;99.90;;;;;;5058418;28;20101;-82
2022/04/23 01:54:36;;;;;;;16.25;8.75;;;9.90;99.90;;;;;;5052182;28;20496;-83
2022/04/23 01:57:03;;;;;;;15.70;9.07;;;9.90;99.90;;;;;;5068511;28;20046;-83
2022/04/23 01:59:29;;;;;;;15.25;9.02;;;9.90;99.90;;;;;;5068009;28;20040;-83
2022/04/23 02:01:55;;;;;;;15.13;8.40;;;9.80;99.90;;;;;;5069789;28;20083;-83
2022/04/23 02:04:21;;;;;;;15.43;8.50;;;9.80;99.90;;;;;;5067929;28;20067;-83
2022/04/23 02:06:46;;;;;;;17.00;8.75;;;9.80;99.90;;;;;;5053816;28;20119;-83
2022/04/23 02:09:13;;;;;;;18.48;9.68;;;9.80;99.90;;;;;;5051881;28;20119;-82
2022/04/23 02:11:38;;;;;;;16.42;8.93;;;9.70;99.90;;;;;;5060872;28;20493;-83
2022/04/23 02:14:05;;;;;;;17.48;9.50;;;9.70;99.90;;;;;;5070073;28;20093;-83
2022/04/23 02:16:31;;;;;;;16.38;8.75;;;9.70;99.90;;;;;;5043655;28;20048;-82
2022/04/23 02:18:58;;;;;;;16.05;8.77;;;9.70;99.90;;;;;;5061592;28;20253;-83
2022/04/23 02:21:27;;;;;;;16.52;9.40;;;9.70;99.90;;;;;;5077382;28;20094;-83
2022/04/23 02:23:54;;;;;;;15.93;9.25;;;9.60;99.90;;;;;;5069792;28;20058;-83
2022/04/23 02:26:20;;;;;;;16.67;8.75;;;9.60;99.90;;;;;;5076901;28;20025;-83
2022/04/23 02:28:47;;;;;;;19.35;9.05;;;9.60;99.90;;;;;;5056954;28;20459;-83
2022/04/23 02:31:13;;;;;;;15.88;8.90;;;9.60;99.90;;;;;;5058185;28;20067;-83
2022/04/23 02:33:39;;;;;;;17.98;9.18;;;9.60;99.90;;;;;;5062530;28;20488;-83
2022/04/23 02:36:06;;;;;;;18.58;9.57;;;9.60;99.90;;;;;;5064426;28;20044;-82
2022/04/23 02:38:39;;;;;;;17.95;8.82;;;9.60;99.90;;;;;;5082050;28;20040;-83
2022/04/23 02:41:06;;;;;;;15.80;8.80;;;10.00;99.90;;;;;;5069739;28;20218;-83
2022/04/23 02:43:35;;;;;;;15.80;8.75;;;9.60;99.90;;;;;;5051983;28;20097;-83
2022/04/23 02:46:05;;;;;;;17.05;9.25;;;9.60;99.90;;;;;;5049477;28;20043;-82
2022/04/23 02:48:31;;;;;;;15.88;8.57;;;9.60;99.90;;;;;;5062417;28;20093;-82
2022/04/23 02:50:57;;;;;;;15.20;8.50;;;9.60;99.90;;;;;;5074440;28;20064;-83
2022/04/23 02:53:23;;;;;;;16.13;8.57;;;9.60;99.90;;;;;;5058484;28;20044;-82
2022/04/23 02:55:51;;;;;;;13.75;8.40;;;9.60;99.90;;;;;;5066564;28;20098;-82
2022/04/23 02:58:18;;;;;;;14.80;9.05;;;9.60;99.90;;;;;;5078991;28;20032;-82
2022/04/23 03:00:44;;;;;;;14.88;8.40;;;9.60;99.90;;;;;;5065275;28;20512;-83
2022/04/23 03:03:11;;;;;;;15.13;8.40;;;9.60;99.90;;;;;;5043868;28;20044;-83
2022/04/23 03:05:42;;;;;;;15.38;9.13;;;9.50;99.90;;;;;;5060376;28;20051;-83
2022/04/23 03:08:10;;;;;;;14.93;8.65;;;9.80;99.90;;;;;;5058745;28;20299;-83
2022/04/23 03:10:36;;;;;;;14.05;8.43;;;9.50;99.90;;;;;;5076183;28;20033;-83
2022/04/23 03:13:02;;;;;;;15.32;8.77;;;9.50;99.90;;;;;;5042744;28;20423;-83
2022/04/23 03:15:27;;;;;;;14.85;8.73;;;9.80;99.90;;;;;;5041332;28;20038;-82
2022/04/23 03:18:10;;;;;;;14.70;8.82;;;9.50;99.90;;;;;;5043221;28;20039;-83
2022/04/23 03:20:36;;;;;;;17.00;8.25;;;9.60;99.90;;;;;;5058046;28;20046;-83
2022/04/23 03:23:03;;;;;;;15.63;9.43;;;9.60;99.90;;;;;;5069997;28;20036;-82
2022/04/23 03:25:29;;;;;;;13.20;8.00;;;9.50;99.90;;;;;;5050523;28;20103;-83
2022/04/23 03:27:55;;;;;;;14.13;8.63;;;9.80;99.90;;;;;;5058530;28;20105;-83
2022/04/23 03:30:21;;;;;;;15.90;8.55;;;9.60;99.90;;;;;;5050317;28;20020;-83
2022/04/23 03:32:47;;;;;;;14.13;8.48;;;9.70;99.90;;;;;;5068124;28;20097;-84
2022/04/23 03:35:14;;;;;;;15.60;9.05;;;9.50;99.90;;;;;;5050340;28;20392;-83
2022/04/23 03:37:41;;;;;;;16.55;8.57;;;9.40;99.90;;;;;;5075175;28;20550;-82
2022/04/23 03:40:08;;;;;;;15.20;8.90;;;9.40;99.90;;;;;;5060381;28;20820;-83
2022/04/23 03:42:34;;;;;;;17.40;9.25;;;9.40;99.90;;;;;;5056809;28;20086;-83
2022/04/23 03:45:02;;;;;;;14.48;9.10;;;9.40;99.90;;;;;;5041628;28;20041;-83
2022/04/23 03:47:27;;;;;;;14.10;8.65;;;9.40;99.90;;;;;;5062469;28;20032;-83
2022/04/23 03:49:53;;;;;;;15.57;8.70;;;9.30;99.90;;;;;;5048509;28;20482;-83
2022/04/23 03:52:19;;;;;;;15.05;9.15;;;9.30;99.90;;;;;;5044140;28;20038;-82
2022/04/23 03:54:46;;;;;;;15.48;9.18;;;9.30;99.90;;;;;;5045993;28;20109;-83
2022/04/23 03:57:12;;;;;;;14.43;9.23;;;9.30;99.90;;;;;;5059408;28;20596;-82
2022/04/23 03:59:38;;;;;;;16.15;9.30;;;9.40;99.90;;;;;;5055988;28;20122;-83
2022/04/23 04:02:05;;;;;;;14.88;9.23;;;9.20;99.90;;;;;;5058904;28;20505;-82
2022/04/23 04:04:32;;;;;;;14.48;9.07;;;9.20;99.90;;;;;;5078614;28;20076;-83
2022/04/23 04:06:59;;;;;;;14.57;8.57;;;9.20;99.90;;;;;;5059044;28;20041;-83
2022/04/23 04:09:27;;;;;;;17.58;9.73;;;9.20;99.90;;;;;;5076949;28;20059;-82
2022/04/23 04:12:02;;;;;;;17.20;9.48;;;9.20;99.90;;;;;;5067710;28;20044;-82
2022/04/23 04:14:32;;;;;;;16.40;9.25;;;9.10;99.90;;;;;;5051932;28;20063;-83
2022/04/23 04:17:14;;;;;;;14.82;9.20;;;9.10;99.90;;;;;;5059493;28;20044;-82
2022/04/23 04:19:40;;;;;;;18.30;9.57;;;9.10;99.90;;;;;;5050656;28;20040;-83
2022/04/23 04:22:09;;;;;;;14.57;9.40;;;9.10;99.90;;;;;;5050981;28;20055;-83
2022/04/23 04:24:35;;;;;;;14.55;9.05;;;9.00;99.90;;;;;;5066625;28;20097;-83
2022/04/23 04:27:01;;;;;;;14.52;9.00;;;9.40;99.90;;;;;;5057871;28;20112;-82
2022/04/23 04:29:28;;;;;;;15.40;8.88;;;9.00;99.90;;;;;;5049951;28;20075;-82
2022/04/23 04:31:54;;;;;;;15.48;9.00;;;9.00;99.90;;;;;;5067692;28;20047;-83
2022/04/23 04:34:31;;;;;;;14.95;8.95;;;9.00;99.90;;;;;;5055178;28;20041;-83
2022/04/23 04:37:04;;;;;;;15.43;9.35;;;9.00;99.90;;;;;;5057435;28;20043;-83
2022/04/23 04:39:30;;;;;;;14.70;8.90;;;9.00;99.90;;;;;;5069046;28;20102;-83
2022/04/23 04:41:56;;;;;;;15.75;9.48;;;9.00;99.90;;;;;;5060735;28;20090;-82
2022/04/23 04:44:22;;;;;;;16.63;9.80;;;9.00;99.90;;;;;;5072096;28;20036;-81
2022/04/23 04:46:48;;;;;;;13.68;9.05;;;9.80;99.90;;;;;;5049983;28;20032;-82
2022/04/23 04:49:14;;;;;;;14.57;9.27;;;8.90;99.90;;;;;;5075563;28;20033;-81
2022/04/23 04:51:39;;;;;;;15.18;9.38;;;9.00;99.90;;;;;;5076063;28;20039;-81
2022/04/23 04:54:06;;;;;;;13.77;8.63;;;8.40;99.90;;;;;;5052446;28;20442;-83
2022/04/23 04:56:32;;;;;;;15.18;9.30;;;9.00;99.90;;;;;;5060240;28;20048;-82
2022/04/23 04:58:59;;;;;;;14.43;8.73;;;8.90;99.90;;;;;;5058255;28;20373;-81
2022/04/23 05:01:25;;;;;;;15.60;9.63;;;9.30;99.90;;;;;;5064735;28;20538;-82
2022/04/23 05:03:51;;;;;;;13.68;8.80;;;9.00;99.90;;;;;;5045721;28;20044;-81
2022/04/23 05:06:18;;;;;;;13.88;8.43;;;9.50;99.90;;;;;;5044537;28;20037;-82
2022/04/23 05:08:43;;;;;;;14.85;8.35;;;9.00;99.90;;;;;;5078488;28;20044;-83
2022/04/23 05:11:10;;;;;;;13.38;7.97;;;9.00;99.90;;;;;;5066556;28;20036;-83
2022/04/23 05:13:37;;;;;;;14.18;8.88;;;9.10;99.90;;;;;;5053611;28;20072;-83
2022/04/23 05:16:06;;;;;;;14.85;8.85;;;9.10;99.90;;;;;;5066024;28;20103;-83
2022/04/23 05:18:35;;;;;;;12.82;7.75;;;9.10;99.90;;;;;;5067517;28;20076;-83
2022/04/23 05:21:01;;;;;;;13.00;8.30;;;9.20;99.90;;;;;;5064331;28;20040;-82
2022/04/23 05:23:27;;;;;;;13.38;8.23;;;9.20;99.90;;;;;;5062307;28;20032;-82
2022/04/23 05:25:53;;;;;;;13.63;8.15;;;9.20;99.90;;;;;;5059124;28;20039;-83
2022/04/23 05:28:18;;;;;;;15.38;8.40;;;9.30;99.90;;;;;;5069181;28;20461;-83
2022/04/23 05:30:45;;;;;;;20.77;8.25;;;9.30;99.90;;;;;;5070341;28;20041;-82
2022/04/23 05:33:11;;;;;;;14.40;8.90;;;9.40;99.90;;;;;;5065544;28;20496;-83
2022/04/23 05:35:37;;;;;;;13.30;8.50;;;9.40;99.90;;;;;;5060872;28;20033;-83
2022/04/23 05:38:03;;;;;;;13.80;8.05;;;9.50;99.90;;;;;;5067640;28;20040;-83
2022/04/23 05:40:29;;;;;;;13.02;8.27;;;9.50;99.90;;;;;;5048374;28;20067;-84
2022/04/23 05:42:57;;;;;;;13.45;8.02;;;9.60;99.90;;;;;;5059851;28;20401;-83
2022/04/23 05:45:27;;;;;;;14.57;7.80;;;9.70;99.90;;;;;;5075440;28;20496;-83
2022/04/23 05:47:53;;;;;;;13.32;8.02;;;9.70;99.90;;;;;;5065104;28;20037;-83
2022/04/23 05:50:18;;;;;;;12.50;7.60;;;9.80;99.90;;;;;;5079078;28;20093;-83
2022/04/23 05:52:45;;;;;;;12.45;8.23;;;10.50;99.90;;;;;;5063955;28;20097;-83
2022/04/23 05:55:11;;;;;;;14.23;8.10;;;10.30;99.90;;;;;;5054586;28;20047;-83
2022/04/23 05:57:37;;;;;;;12.25;7.90;;;9.20;99.90;;;;;;5049231;28;20126;-83
2022/04/23 06:00:04;;;;;;;12.85;7.53;;;10.30;99.90;;;;;;5054476;28;20072;-83
2022/04/23 06:02:31;;;;;;;13.23;7.68;;;10.10;99.90;;;;;;5068634;28;20447;-83
2022/04/23 06:05:01;;;;;;;13.90;7.45;;;10.30;99.90;;;;;;5065410;28;20124;-83
2022/04/23 06:07:27;;;;;;;14.60;8.20;;;10.20;99.90;;;;;;5061773;28;20045;-83
2022/04/23 06:09:52;;;;;;;13.82;8.00;;;10.30;99.90;;;;;;5051192;28;20043;-83
2022/04/23 06:12:18;;;;;;;14.85;7.97;;;10.40;99.90;;;;;;5053433;28;20044;-83
2022/04/23 06:14:44;;;;;;;14.18;7.95;;;10.80;99.90;;;;;;5059584;28;20116;-83
2022/04/23 06:17:12;;;;;;;13.13;7.97;;;10.50;99.90;;;;;;5052035;28;20114;-82
2022/04/23 06:19:38;;;;;;;12.13;7.45;;;10.50;99.90;;;;;;5064373;28;20113;-83
2022/04/23 06:22:05;;;;;;;11.98;7.85;;;10.60;99.90;;;;;;5046263;28;20040;-83
2022/04/23 06:24:31;;;;;;;13.05;8.27;;;10.70;99.90;;;;;;5051393;28;20033;-83
2022/04/23 06:26:57;;;;;;;12.85;8.73;;;10.80;99.90;;;;;;5063291;28;20086;-83
2022/04/23 06:29:23;;;;;;;14.00;8.10;;;10.80;99.90;;;;;;5066087;28;20060;-82
2022/04/23 06:31:50;;;;;;;13.43;8.43;;;10.80;99.90;;;;;;5062307;28;20111;-83
2022/04/23 06:34:15;;;;;;;12.90;8.32;;;11.00;99.90;;;;;;5062957;28;20667;-82
2022/04/23 06:36:42;;;;;;;13.73;8.35;;;11.00;99.90;;;;;;5069969;28;20127;-83
2022/04/23 06:39:08;;;;;;;14.98;9.02;;;11.10;99.90;;;;;;5068025;28;20042;-83
2022/04/23 06:41:34;;;;;;;13.02;8.45;;;11.20;99.90;;;;;;5076533;28;20170;-82
2022/04/23 06:44:00;;;;;;;14.50;8.43;;;11.40;99.90;;;;;;5066223;28;20519;-81
2022/04/23 06:46:26;;;;;;;13.98;7.88;;;11.40;99.90;;;;;;5060082;28;20404;-81
2022/04/23 06:48:51;;;;;;;14.63;8.52;;;11.40;99.90;;;;;;5053831;28;20032;-82
2022/04/23 06:51:17;;;;;;;15.57;8.68;;;11.50;99.90;;;;;;5064792;28;20512;-82
2022/04/23 06:53:43;;;;;;;13.52;8.73;;;11.60;99.90;;;;;;5061577;28;20093;-82
2022/04/23 06:56:09;;;;;;;13.82;8.70;;;11.60;99.90;;;;;;5051036;28;20042;-81
2022/04/23 06:58:35;;;;;;;13.38;8.50;;;11.70;99.90;;;;;;5061564;28;20040;-82
2022/04/23 07:01:01;;;;;;;13.10;8.35;;;11.80;99.90;;;;;;5066974;28;20150;-82
2022/04/23 07:03:27;;;;;;;15.10;8.93;;;11.90;99.90;;;;;;5063450;28;20059;-83
2022/04/23 07:05:53;;;;;;;12.73;8.52;;;12.00;99.90;;;;;;5070192;28;20564;-82
2022/04/23 07:08:19;;;;;;;14.43;8.60;;;11.90;99.90;;;;;;5052098;28;20123;-82
2022/04/23 07:10:44;;;;;;;12.18;8.27;;;12.10;99.90;;;;;;5063049;28;20062;-82
2022/04/23 07:13:11;;;;;;;14.05;8.55;;;12.20;99.90;;;;;;5038650;28;20408;-82
2022/04/23 07:15:39;;;;;;;14.73;8.77;;;12.20;99.90;;;;;;5053643;28;20035;-83
2022/04/23 07:18:07;;;;;;;13.07;7.97;;;12.20;99.90;;;;;;5060265;28;20068;-82
2022/04/23 07:20:33;;;;;;;14.15;8.57;;;12.20;99.90;;;;;;5065459;28;20076;-82
2022/04/23 07:25:43;;;;;;;12.77;7.78;;;12.40;99.90;;;;;;5074324;28;20036;-82
2022/04/23 07:28:09;;;;;;;13.32;7.93;;;12.50;99.90;;;;;;5074004;28;20051;-82
2022/04/23 07:30:35;;;;;;;12.85;7.88;;;12.50;99.90;;;;;;5055132;28;20120;-82
2022/04/23 07:33:01;;;;;;;12.55;7.70;;;12.60;99.90;;;;;;5080749;28;20072;-83
2022/04/23 07:38:22;;;;;;;14.27;7.80;;;12.80;99.90;;;;;;5075191;28;20044;-83
2022/04/23 07:40:51;;;;;;;13.27;8.38;;;12.90;99.90;;;;;;5071686;28;20043;-82
2022/04/23 07:43:18;;;;;;;12.50;7.70;;;12.90;99.90;;;;;;5086007;28;20037;-82
2022/04/23 07:45:45;;;;;;;13.80;7.60;;;13.00;99.90;;;;;;5072596;28;20540;-82
2022/04/23 07:48:13;;;;;;;13.10;7.70;;;13.10;99.90;;;;;;5055863;28;20398;-82
2022/04/23 07:50:40;;;;;;;13.05;7.80;;;13.10;99.90;;;;;;5052797;28;20519;-82
2022/04/23 07:53:08;;;;;;;11.73;7.50;;;13.20;99.90;;;;;;5065219;28;20055;-81
2022/04/23 07:55:38;;;;;;;14.15;8.18;;;13.30;99.90;;;;;;5092359;28;20115;-82
2022/04/23 07:58:05;;;;;;;14.88;8.07;;;13.30;99.90;;;;;;5054219;28;20574;-83
2022/04/23 08:00:32;;;;;;;13.05;7.82;;;13.40;99.90;;;;;;5055319;28;20051;-82
2022/04/23 08:02:59;;;;;;;12.52;7.32;;;13.50;99.90;;;;;;5052271;28;20076;-83
2022/04/23 08:05:24;;;;;;;13.93;7.95;;;13.50;99.90;;;;;;5072086;28;20521;-83
2022/04/23 08:07:50;;;;;;;11.98;7.53;;;13.60;99.90;;;;;;5088949;28;20078;-83
2022/04/23 08:10:16;;;;;;;17.77;7.45;;;13.70;99.90;;;;;;5069657;28;20039;-83
2022/04/23 08:12:42;;;;;;;13.23;7.53;;;13.70;99.90;;;;;;5052395;28;20054;-85
2022/04/23 08:15:09;;;;;;;12.60;7.72;;;13.80;99.90;;;;;;5052723;28;20519;-83
2022/04/23 08:17:34;;;;;;;12.23;8.02;;;13.80;99.90;;;;;;5062667;28;20035;-83
2022/04/23 08:20:00;;;;;;;13.18;8.02;;;13.80;99.90;;;;;;5071983;28;20044;-83
2022/04/23 08:22:26;;;;;;;13.05;7.88;;;13.80;99.90;;;;;;5025215;28;20041;-83
2022/04/23 08:24:52;;;;;;;13.73;8.35;;;13.90;99.90;;;;;;5052303;28;20147;-83
2022/04/23 08:27:17;;;;;;;11.98;7.57;;;13.90;99.90;;;;;;5044745;28;20058;-84
2022/04/23 08:32:27;;;;;;;12.88;8.10;;;14.10;99.90;;;;;;5074051;28;20063;-83
2022/04/23 08:34:53;;;;;;;12.07;7.55;;;14.10;99.90;;;;;;5055682;28;20058;-84
2022/04/23 08:37:22;;;;;;;13.35;8.25;;;14.10;99.90;;;;;;5057003;28;20045;-83
2022/04/23 08:39:48;;;;;;;14.50;8.35;;;14.20;99.90;;;;;;5068449;28;20048;-83
2022/04/23 08:42:16;;;;;;;12.57;7.95;;;14.30;99.90;;;;;;5071721;28;20044;-83
2022/04/23 08:44:43;;;;;;;15.02;8.77;;;14.30;99.90;;;;;;5088503;28;20373;-83
2022/04/23 08:47:12;;;;;;;12.35;8.25;;;14.30;99.90;;;;;;5060598;28;20040;-83
2022/04/23 08:49:42;;;;;;;15.50;8.05;;;14.40;99.90;;;;;;5050216;28;20052;-83
2022/04/23 08:52:31;;;;;;;14.23;8.15;;;14.50;99.90;;;;;;5051777;28;20528;-83
2022/04/23 08:55:02;;;;;;;12.75;8.13;;;14.60;99.90;;;;;;5070886;28;20121;-83
2022/04/23 08:57:28;;;;;;;12.63;8.38;;;14.60;99.90;;;;;;5070886;28;20048;-83
2022/04/23 08:59:56;;;;;;;13.82;8.35;;;14.60;99.90;;;;;;5042427;28;20036;-82
2022/04/23 09:02:23;;;;;;;12.68;8.10;;;14.60;99.90;;;;;;5066520;28;20129;-83
2022/04/23 09:04:50;;;;;;;12.88;7.90;;;14.60;99.90;;;;;;5075962;28;20040;-83
2022/04/23 09:07:20;;;;;;;14.15;8.80;;;14.60;99.90;;;;;;5074327;28;20308;-83
2022/04/23 09:09:54;;;;;;;15.82;8.95;;;14.70;99.90;;;;;;5055169;28;20037;-83
2022/04/23 09:12:24;;;;;;;14.25;8.65;;;14.70;99.90;;;;;;5083846;28;20181;-84
2022/04/23 09:14:51;;;;;;;12.57;8.07;;;14.70;99.90;;;;;;5066748;28;20074;-83
2022/04/23 09:25:44;;;;;;;12.20;8.55;;;14.90;99.90;;;;;;5079451;28;20155;-83
2022/04/23 09:28:16;;;;;;;14.20;8.27;;;15.00;99.90;;;;;;5074231;28;20040;-83
2022/04/23 09:30:42;;;;;;;12.73;8.07;;;15.00;99.90;;;;;;5092033;28;20500;-83
2022/04/23 09:33:08;;;;;;;12.15;7.63;;;15.20;99.90;;;;;;5091058;28;20043;-82
2022/04/23 09:35:34;;;;;;;13.40;8.43;;;15.10;99.90;;;;;;5052947;28;20047;-83
2022/04/23 09:38:18;;;;;;;12.25;8.07;;;15.20;99.90;;;;;;5054867;28;20047;-83
2022/04/23 09:40:50;;;;;;;13.95;8.02;;;15.20;99.90;;;;;;5085726;28;20039;-83
2022/04/23 09:43:22;;;;;;;14.23;7.03;;;15.20;99.90;;;;;;5060894;28;20041;-82
2022/04/23 09:46:05;;;;;;;12.07;6.82;;;15.20;99.90;;;;;;5056961;28;20072;-83
2022/04/23 09:48:32;;;;;;;11.45;7.20;;;15.30;99.90;;;;;;5091892;28;20036;-82
2022/04/23 09:50:58;;;;;;;12.60;7.25;;;15.40;99.90;;;;;;5088031;28;20047;-82
2022/04/23 09:53:27;;;;;;;11.90;7.43;;;15.40;99.90;;;;;;5054776;28;20457;-82
2022/04/23 09:55:58;;;;;;;11.43;7.40;;;15.50;99.90;;;;;;5074928;28;20484;-82
2022/04/23 09:58:27;;;;;;;13.82;6.80;;;15.60;99.90;;;;;;5060899;28;20097;-82
2022/04/23 10:00:55;;;;;;;12.82;7.30;;;15.70;99.90;;;;;;5091464;28;20029;-83
2022/04/23 10:03:27;;;;;;;13.32;7.57;;;15.70;99.90;;;;;;5074358;28;20042;-82
2022/04/23 10:05:53;;;;;;;13.77;7.03;;;15.70;99.90;;;;;;5074144;28;20040;-82
2022/04/23 10:08:26;;;;;;;11.98;7.32;;;15.80;99.90;;;;;;5054573;28;20044;-83
2022/04/23 10:11:04;;;;;;;12.98;7.50;;;15.70;99.90;;;;;;5087202;28;20115;-83
2022/04/23 10:13:31;;;;;;;12.10;6.78;;;15.70;99.90;;;;;;5091054;28;20046;-83
2022/04/23 10:16:02;;;;;;;10.95;6.88;;;15.80;99.90;;;;;;5085150;28;20169;-82
2022/04/23 10:18:28;;;;;;;12.25;6.70;;;15.80;99.90;;;;;;5090972;28;20046;-84
2022/04/23 10:20:58;;;;;;;11.98;7.03;;;15.90;99.90;;;;;;5040753;28;20068;-83
2022/04/23 10:23:46;;;;;;;12.75;7.15;;;16.00;99.90;;;;;;5080738;28;20213;-83
2022/04/23 10:26:48;;;;;;;12.00;6.20;;;16.00;99.90;;;;;;5070017;28;20508;-83
2022/04/23 10:29:15;;;;;;;11.82;5.80;;;16.00;98.50;;;;;;5090587;28;20040;-83
2022/04/23 10:31:42;;;;;;;12.65;6.10;;;16.10;99.60;;;;;;5060201;28;20036;-83
2022/04/23 10:34:33;;;;;;;10.00;6.13;;;16.10;97.90;;;;;;5090800;28;20036;-83
2022/04/23 10:37:22;;;;;;;11.13;5.78;;;16.00;94.50;;;;;;5084445;28;20043;-83
2022/04/23 10:39:51;;;;;;;12.45;5.88;;;16.10;94.30;;;;;;5057072;28;20043;-83
2022/04/23 10:42:18;;;;;;;12.18;5.70;;;16.10;94.30;;;;;;5073829;28;20493;-82
2022/04/23 10:44:44;;;;;;;11.00;5.68;;;16.10;93.80;;;;;;5062878;28;20036;-83
2022/04/23 10:47:28;;;;;;;10.45;5.05;;;16.10;93.70;;;;;;5063599;28;20378;-83
2022/04/23 10:50:23;;;;;;;10.13;5.13;;;16.10;92.20;;;;;;5073739;28;20060;-82
2022/04/23 10:52:50;;;;;;;9.20;5.28;;;16.30;92.20;;;;;;5073126;28;20048;-83
2022/04/23 10:55:16;;;;;;;11.30;5.65;;;16.30;91.00;;;;;;5064408;28;20079;-83
2022/04/23 10:57:57;;;;;;;12.20;6.22;;;16.40;90.70;;;;;;5056220;28;20097;-83
2022/04/23 11:00:27;;;;;;;10.07;6.03;;;16.50;88.90;;;;;;5068601;28;20040;-83
2022/04/23 11:03:05;;;;;;;11.98;5.53;;;16.60;89.30;;;;;;5062346;28;20059;-82
2022/04/23 11:13:50;;;;;;;10.00;5.53;;;17.00;88.10;;;;;;5080683;28;20032;-83
2022/04/23 11:16:18;;;;;;;13.00;5.82;;;17.10;87.30;;;;;;5048094;28;20113;-82
2022/04/23 11:18:49;;;;;;;10.52;5.88;;;17.10;86.30;;;;;;5062795;28;20040;-83
2022/04/23 11:21:26;;;;;;;9.63;5.53;;;17.10;85.00;;;;;;5062270;28;20036;-83
2022/04/23 11:23:55;;;;;;;10.70;6.15;;;17.00;81.80;;;;;;5048959;28;20117;-83
2022/04/23 11:26:44;;;;;;;9.50;5.07;;;16.90;82.60;;;;;;5048302;28;20032;-83
2022/04/23 11:29:10;;;;;;;10.23;5.28;;;16.90;82.30;;;;;;5060465;28;20044;-83
2022/04/23 11:31:36;;;;;;;10.15;5.28;;;17.00;82.30;;;;;;5050068;28;20051;-83
2022/04/23 11:34:03;;;;;;;11.10;5.47;;;17.00;80.60;;;;;;5062090;28;20067;-83
2022/04/23 11:36:33;;;;;;;9.82;5.07;;;17.00;81.30;;;;;;5047648;28;20586;-83
2022/04/23 11:39:03;;;;;;;11.07;5.97;;;17.20;83.70;;;;;;5059764;28;20185;-84
2022/04/23 11:41:33;;;;;;;11.77;5.72;;;17.20;82.70;;;;;;5068528;28;20055;-83
2022/04/23 11:47:04;;;;;;;10.10;5.50;;;17.30;79.20;;;;;;5073910;28;20048;-83
2022/04/23 11:49:31;;;;;;;9.68;4.38;;;17.30;79.70;;;;;;5047112;28;20066;-83
2022/04/23 11:52:05;;;;;;;12.00;5.53;;;17.30;79.00;;;;;;5062979;28;20048;-83
2022/04/23 11:54:36;;;;;;;10.20;4.78;;;17.20;78.60;;;;;;5048138;28;20036;-83
2022/04/23 11:57:03;;;;;;;10.82;5.63;;;17.20;78.70;;;;;;5077383;28;20040;-83
2022/04/23 11:59:40;;;;;;;9.60;5.38;;;17.10;78.90;;;;;;5063124;28;20700;-82
2022/04/23 12:02:28;;;;;;;9.63;5.03;;;17.20;77.40;;;;;;5059080;28;20501;-83
2022/04/23 12:04:57;;;;;;;11.00;5.40;;;17.20;77.10;;;;;;5087492;28;20093;-83
2022/04/23 12:07:24;;;;;;;9.57;5.55;;;17.30;77.70;;;;;;5040656;28;20112;-83
2022/04/23 12:10:00;;;;;;;10.30;5.35;;;17.30;76.30;;;;;;5056800;28;20714;-83
2022/04/23 12:12:28;;;;;;;9.88;4.95;;;17.40;76.50;;;;;;5070951;28;20497;-84
2022/04/23 12:14:54;;;;;;;10.38;5.68;;;17.40;76.70;;;;;;5026244;28;20507;-83
2022/04/23 12:17:25;;;;;;;11.65;5.15;;;17.30;75.70;;;;;;5054259;28;20467;-83
2022/04/23 12:19:52;;;;;;;9.98;5.50;;;17.30;75.20;;;;;;5073814;28;20539;-83
2022/04/23 12:22:26;;;;;;;12.10;5.55;;;17.30;76.10;;;;;;5045154;28;20042;-83
2022/04/23 12:25:07;;;;;;;10.43;5.13;;;17.50;75.50;;;;;;5054323;28;20089;-83
2022/04/23 12:27:50;;;;;;;11.20;4.97;;;17.50;75.60;;;;;;5064590;28;20034;-83
2022/04/23 12:41:23;;;;;;;9.43;4.82;;;17.80;73.20;;;;;;5073693;28;20059;-82
2022/04/23 12:43:49;;;;;;;8.45;4.45;;;17.90;72.60;;;;;;5049614;28;20040;-83
2022/04/23 12:46:14;;;;;;;9.85;4.53;;;17.90;72.30;;;;;;5047805;28;20038;-84
2022/04/23 12:48:59;;;;;;;8.48;4.40;;;17.80;71.60;;;;;;5047838;28;20350;-83
2022/04/23 12:51:25;;;;;;;8.82;4.63;;;17.70;70.50;;;;;;5076112;28;20101;-83
2022/04/23 12:53:51;;;;;;;9.35;4.50;;;17.90;71.40;;;;;;5061844;28;20051;-83
2022/04/23 12:56:19;;;;;;;9.20;4.72;;;17.90;71.30;;;;;;5055992;28;20056;-83
2022/04/23 12:58:45;;;;;;;8.73;4.30;;;18.00;71.00;;;;;;5043267;28;20040;-83
2022/04/23 13:01:12;;;;;;;10.55;3.88;;;18.00;69.80;;;;;;5067205;28;20047;-83
2022/04/23 13:03:43;;;;;;;7.80;3.67;;;18.10;70.00;;;;;;5059545;28;20409;-83
2022/04/23 13:08:57;;;;;;;9.55;4.10;;;18.30;68.80;;;;;;5051201;28;20059;-83
2022/04/23 13:11:30;;;;;;;8.60;4.15;;;18.20;68.40;;;;;;5054417;28;20044;-83
2022/04/23 13:14:01;;;;;;;8.77;4.22;;;18.30;68.60;;;;;;5068285;28;20126;-83
2022/04/23 13:16:39;;;;;;;11.40;4.47;;;18.30;68.40;;;;;;5054204;28;20040;-83
2022/04/23 13:19:05;;;;;;;8.73;4.30;;;18.30;66.80;;;;;;5071208;28;20112;-83
2022/04/23 13:21:33;;;;;;;11.25;4.22;;;18.30;67.60;;;;;;5051346;28;20497;-82
2022/04/23 13:24:00;;;;;;;9.85;3.85;;;18.30;67.30;;;;;;5057677;28;20093;-83
2022/04/23 13:26:28;;;;;;;9.05;4.13;;;18.40;67.00;;;;;;5073903;28;20032;-84
2022/04/23 13:28:54;;;;;;;9.05;4.40;;;18.50;66.90;;;;;;5060024;28;20036;-83